Main page
METAR-TAF:

METAR-TAF

Airports :

Santiago de Compostela Airport

Santiago de Compostela, Spain

latitude: 42-54N, longitude: 008-26W, elevation: 370 m

Current weather observation

The report was made 18 minutes ago, at 19:30 UTC
Wind 5 kt from the Northeast, varying between North and East
Temperature 6°C
Humidity 65%
Pressure 1027 hPa
Visibility 10 km or more
no clouds below 1500 m and no cumulonimbus

METAR: LEST 211930Z 04005KT 350V100 CAVOK 06/00 Q1027 NOSIG

Time: 20:48 (19:48 UTC)

Forecast

The report was made 2 hours and 48 minutes ago, at 17:00 UTC
Forecast valid from 21 at 18 UTC to 22 at 18 UTC
Wind 8 kt from the East
Visibility 10 km or more
no clouds below 1500 m and no cumulonimbus
Probability 30% :
Temporary
from 22 at 03 UTC to 22 at 08 UTC
Visibility: 1500 m
patches of fog

TAF: LEST 211700Z 2118/2218 09008KT CAVOK TX10/2215Z TNM00/2206Z PROB30 TEMPO 2203/2208 1500 BCFG

Weather observations and forecasts of more than 4000 airports (METAR and TAF reports).

The available stations are represented by yellow and red dots on the map.

Hover mouse over dot to see the name of the station.

Then click to see weather observations and forecasts.

To change the map : click on the green buttons with a black cross to zoom in, on the green button with a dash to zoom out, or on the green arrows for adjacent maps.


METAR-TAF: